createdAt,value
2022-10-17T00:00:45.616Z,101876.81
2022-10-17T00:04:03.348Z,101876.75
2022-10-17T00:07:26.673Z,101877.91
2022-10-17T00:10:37.294Z,101878.38
2022-10-17T00:14:02.240Z,101875.94
2022-10-17T00:17:33.458Z,101878.84
2022-10-17T00:20:43.296Z,101885.38
2022-10-17T00:24:07.223Z,101883.50
2022-10-17T00:27:38.439Z,101881.53
2022-10-17T00:31:04.605Z,101877.16
2022-10-17T00:34:17.472Z,101876.09
2022-10-17T00:37:34.244Z,101881.53
2022-10-17T00:40:58.372Z,101881.78
2022-10-17T00:44:33.533Z,101879.00
2022-10-17T00:47:37.632Z,101884.69
2022-10-17T00:50:44.456Z,101891.31
2022-10-17T00:53:52.054Z,101870.31
2022-10-17T00:57:13.117Z,101881.84
2022-10-17T01:00:36.159Z,101877.31
2022-10-17T01:03:46.831Z,101870.81
2022-10-17T01:06:55.820Z,101873.50
2022-10-17T01:10:14.135Z,101877.59
2022-10-17T01:14:05.425Z,101873.94
2022-10-17T01:17:56.700Z,101879.56
2022-10-17T01:21:06.471Z,101874.22
2022-10-17T01:24:21.526Z,101870.63
2022-10-17T01:27:35.704Z,101881.81
2022-10-17T01:31:24.224Z,101867.44
2022-10-17T01:34:55.244Z,101870.31
2022-10-17T01:38:22.192Z,101877.34
2022-10-17T01:41:52.888Z,101873.81
2022-10-17T01:45:13.808Z,101881.13
2022-10-17T01:48:42.099Z,101878.66
2022-10-17T01:52:12.934Z,101884.09
2022-10-17T01:55:55.135Z,101884.78
2022-10-17T01:59:30.076Z,101885.88
2022-10-17T02:02:42.924Z,101888.91
2022-10-17T02:05:52.932Z,101889.56
2022-10-17T02:09:32.012Z,101893.44
2022-10-17T02:13:02.948Z,101884.66
2022-10-17T02:16:24.476Z,101885.41
2022-10-17T02:19:52.168Z,101889.84
2022-10-17T02:23:35.198Z,101893.38
2022-10-17T02:26:46.302Z,101883.97
2022-10-17T02:30:13.812Z,101898.66
2022-10-17T02:33:45.013Z,101901.38
2022-10-17T02:37:05.293Z,101896.00
2022-10-17T02:40:24.260Z,101900.59
2022-10-17T02:43:31.583Z,101907.09
2022-10-17T02:46:41.199Z,101920.31
2022-10-17T02:50:00.202Z,101913.78
2022-10-17T02:53:10.010Z,101912.34
2022-10-17T02:56:19.640Z,101916.44
2022-10-17T02:59:32.095Z,101919.69
2022-10-17T03:02:51.713Z,101912.72
2022-10-17T03:06:05.822Z,101915.41
2022-10-17T03:09:23.062Z,101918.06
2022-10-17T03:12:26.957Z,101920.22
2022-10-17T03:15:37.298Z,101922.19
2022-10-17T03:18:50.098Z,101921.25
2022-10-17T03:21:57.518Z,101928.44
2022-10-17T03:25:00.803Z,101933.63
2022-10-17T03:28:10.013Z,101938.13
2022-10-17T03:31:18.564Z,101945.34
2022-10-17T03:34:42.837Z,101942.25
2022-10-17T03:37:57.605Z,101940.63
2022-10-17T03:41:22.708Z,101954.28
2022-10-17T03:44:50.716Z,101953.56
2022-10-17T03:48:11.750Z,101967.34
2022-10-17T03:51:30.908Z,101964.94
2022-10-17T03:54:51.914Z,101968.81
2022-10-17T03:58:20.074Z,101959.78
2022-10-17T04:01:37.726Z,101964.31
2022-10-17T04:05:00.972Z,101963.41
2022-10-17T04:08:21.665Z,101973.91
2022-10-17T04:11:52.567Z,101978.66
2022-10-17T04:15:09.035Z,101977.91
2022-10-17T04:18:31.766Z,101982.25
2022-10-17T04:21:53.738Z,101970.28
2022-10-17T04:25:15.882Z,101985.56
2022-10-17T04:32:00.785Z,101984.75
2022-10-17T04:35:09.836Z,101992.19
2022-10-17T04:38:33.782Z,101991.56
2022-10-17T04:42:00.764Z,101992.38
2022-10-17T04:45:20.824Z,101992.75
2022-10-17T04:48:51.103Z,101996.84
2022-10-17T04:52:11.749Z,101994.91
2022-10-17T04:55:35.899Z,102007.94
2022-10-17T04:58:57.731Z,102014.41
2022-10-17T05:02:18.909Z,102009.56
2022-10-17T05:05:29.883Z,102018.03
2022-10-17T05:08:53.724Z,102016.47
2022-10-17T05:12:04.346Z,102014.84
2022-10-17T05:15:19.591Z,102024.16
2022-10-17T05:18:24.294Z,102016.88
2022-10-17T05:21:40.837Z,102029.25
2022-10-17T05:24:51.373Z,102027.47
2022-10-17T05:27:57.296Z,102042.22
2022-10-17T05:31:21.164Z,102047.06
2022-10-17T05:34:25.434Z,102051.47
2022-10-17T05:37:49.172Z,102053.78
2022-10-17T05:41:02.044Z,102054.19
2022-10-17T05:44:27.469Z,102060.50
2022-10-17T05:53:46.349Z,102068.88
2022-10-17T05:57:04.083Z,102083.09
2022-10-17T06:04:00.671Z,102084.84
2022-10-17T06:07:58.291Z,102096.25
2022-10-17T06:11:29.127Z,102081.03
2022-10-17T06:14:40.945Z,102098.94
2022-10-17T06:17:53.123Z,102107.78
2022-10-17T06:21:05.267Z,102115.34
2022-10-17T06:24:13.276Z,102118.63
2022-10-17T06:27:20.638Z,102113.28
2022-10-17T06:30:25.498Z,102121.75
2022-10-17T06:33:44.854Z,102126.97
2022-10-17T06:37:35.323Z,102129.22
2022-10-17T06:45:40.641Z,102131.97
2022-10-17T06:49:35.803Z,102143.06
2022-10-17T06:53:20.312Z,102141.44
2022-10-17T06:57:10.364Z,102142.38
2022-10-17T07:00:59.916Z,102148.38
2022-10-17T07:04:21.111Z,102150.81
2022-10-17T07:07:45.625Z,102152.47
2022-10-17T07:11:39.554Z,102157.06
2022-10-17T07:14:51.877Z,102163.88
2022-10-17T07:18:37.966Z,102156.38
2022-10-17T07:21:43.888Z,102163.75
2022-10-17T07:25:06.168Z,102170.09
2022-10-17T07:28:32.284Z,102157.47
2022-10-17T07:31:50.050Z,102168.78
2022-10-17T07:34:55.525Z,102158.00
2022-10-17T07:38:18.231Z,102162.94
2022-10-17T07:42:08.516Z,102175.84
2022-10-17T07:58:12.676Z,102174.94
2022-10-17T08:01:38.563Z,102168.13
2022-10-17T08:04:46.859Z,102171.16
2022-10-17T08:08:40.746Z,102187.00
2022-10-17T08:12:14.950Z,102192.00
2022-10-17T08:20:16.132Z,102189.31
2022-10-17T08:24:23.196Z,102193.97
2022-10-17T08:27:59.007Z,102185.59
2022-10-17T08:32:01.134Z,102192.44
2022-10-17T08:41:15.599Z,102187.34
2022-10-17T08:45:04.040Z,102187.09
2022-10-17T08:53:04.616Z,102192.00
2022-10-17T09:02:11.423Z,102180.00
2022-10-17T09:06:05.985Z,102190.06
2022-10-17T09:09:28.684Z,102182.13
2022-10-17T09:13:43.311Z,102179.03
2022-10-17T09:17:44.809Z,102175.94
2022-10-17T09:22:12.555Z,102178.69
2022-10-17T09:25:30.676Z,102171.72
2022-10-17T09:29:01.842Z,102178.50
2022-10-17T09:37:54.556Z,102175.31
2022-10-17T09:42:18.105Z,102175.22
2022-10-17T09:50:01.055Z,102169.53
2022-10-17T10:00:02.544Z,102165.75
2022-10-17T10:03:56.422Z,102166.06
2022-10-17T10:07:44.719Z,102164.81
2022-10-17T10:16:56.832Z,102156.72
2022-10-17T10:20:38.070Z,102159.91
2022-10-17T10:24:14.561Z,102157.75
2022-10-17T10:27:22.364Z,102154.06
2022-10-17T10:30:34.870Z,102152.47
2022-10-17T10:33:50.898Z,102153.69
2022-10-17T10:37:41.567Z,102146.38
2022-10-17T10:41:13.069Z,102144.78
2022-10-17T10:44:39.780Z,102143.06
2022-10-17T10:48:14.792Z,102136.75
2022-10-17T10:57:25.141Z,102132.88
2022-10-17T11:07:26.377Z,102126.25
2022-10-17T11:10:45.544Z,102130.66
2022-10-17T11:29:12.100Z,102115.94
2022-10-17T11:33:13.481Z,102115.03
2022-10-17T11:42:29.167Z,102107.88
2022-10-17T12:14:17.302Z,102080.47
2022-10-17T12:17:44.073Z,102077.56
2022-10-17T12:21:01.029Z,102075.59
2022-10-17T12:24:52.472Z,102073.47
2022-10-17T12:28:59.857Z,102066.84
2022-10-17T12:32:13.643Z,102079.25
2022-10-17T12:35:59.929Z,102061.09
2022-10-17T12:39:20.631Z,102053.06
2022-10-17T12:42:46.864Z,102051.91
2022-10-17T12:46:01.873Z,102065.88
2022-10-17T12:49:56.682Z,102058.03
2022-10-17T12:53:25.577Z,102050.91
2022-10-17T12:56:53.503Z,102051.84
2022-10-17T13:00:26.372Z,102054.91
2022-10-17T13:04:46.246Z,102039.50
2022-10-17T13:08:26.153Z,102044.22
2022-10-17T13:17:05.563Z,102042.09
2022-10-17T13:20:33.658Z,102038.50
2022-10-17T13:23:38.365Z,102034.94
2022-10-17T13:26:48.268Z,102030.19
2022-10-17T13:29:57.270Z,102034.88
2022-10-17T13:38:42.659Z,102032.31
2022-10-17T13:41:59.835Z,102027.63
2022-10-17T13:46:19.259Z,102027.47
2022-10-17T13:49:41.117Z,102026.66
2022-10-17T13:52:44.335Z,102023.09
2022-10-17T13:56:27.856Z,102022.94
2022-10-17T13:59:50.430Z,102022.25
2022-10-17T14:03:03.971Z,102018.16
2022-10-17T14:06:23.247Z,102022.59
2022-10-17T14:09:43.816Z,102026.00
2022-10-17T14:13:00.244Z,102019.84
2022-10-17T14:16:11.243Z,102024.72
2022-10-17T14:19:33.420Z,102014.81
2022-10-17T14:22:40.963Z,102008.16
2022-10-17T14:26:15.938Z,102009.44
2022-10-17T14:29:27.742Z,102008.78
2022-10-17T14:32:37.755Z,102014.38
2022-10-17T14:35:55.182Z,102021.50
2022-10-17T14:39:15.833Z,102008.28
2022-10-17T14:42:24.880Z,102015.66
2022-10-17T14:45:50.121Z,102009.06
2022-10-17T14:49:27.162Z,102009.16
2022-10-17T14:52:39.077Z,102003.47
2022-10-17T14:56:09.110Z,102004.31
2022-10-17T14:59:51.439Z,101998.63
2022-10-17T15:02:46.980Z,102009.06
2022-10-17T15:06:04.983Z,102011.19
2022-10-17T15:09:28.922Z,102009.00
2022-10-17T15:12:57.495Z,102007.22
2022-10-17T15:16:47.879Z,102011.63
2022-10-17T15:19:51.962Z,102007.13
2022-10-17T15:22:59.586Z,102012.81
2022-10-17T15:26:22.066Z,102015.88
2022-10-17T15:29:30.550Z,102011.47
2022-10-17T15:32:51.963Z,102023.22
2022-10-17T15:36:15.067Z,102016.38
2022-10-17T15:39:37.041Z,102030.53
2022-10-17T15:43:00.058Z,102028.00
2022-10-17T15:46:22.042Z,102041.84
2022-10-17T15:49:43.035Z,102045.78
2022-10-17T15:53:04.012Z,102041.69
2022-10-17T15:56:31.563Z,102042.63
2022-10-17T15:59:48.061Z,102048.56
2022-10-17T16:03:09.083Z,102045.84
2022-10-17T16:06:26.023Z,102049.19
2022-10-17T16:09:41.192Z,102057.56
2022-10-17T16:13:03.998Z,102054.66
2022-10-17T16:16:28.954Z,102049.06
2022-10-17T16:19:58.340Z,102051.34
2022-10-17T16:23:15.141Z,102053.41
2022-10-17T16:26:18.859Z,102062.81
2022-10-17T16:29:25.872Z,102057.78
2022-10-17T16:32:33.580Z,102062.78
2022-10-17T16:35:42.587Z,102059.28
2022-10-17T16:38:46.294Z,102054.59
2022-10-17T16:41:54.848Z,102067.31
2022-10-17T16:45:04.572Z,102070.69
2022-10-17T16:48:18.156Z,102073.53
2022-10-17T16:51:39.824Z,102068.75
2022-10-17T16:54:43.016Z,102078.91
2022-10-17T16:57:49.292Z,102077.66
2022-10-17T17:01:05.658Z,102084.81
2022-10-17T17:04:28.803Z,102083.22
2022-10-17T17:07:53.637Z,102083.28
2022-10-17T17:11:17.615Z,102086.53
2022-10-17T17:14:39.607Z,102088.50
2022-10-17T17:17:55.967Z,102094.31
2022-10-17T17:21:16.871Z,102093.84
2022-10-17T17:24:31.613Z,102093.31
2022-10-17T17:27:34.397Z,102099.91
2022-10-17T17:30:45.142Z,102094.19
2022-10-17T17:34:01.716Z,102092.84
2022-10-17T17:37:08.131Z,102094.78
2022-10-17T17:40:15.223Z,102096.69
2022-10-17T17:43:22.290Z,102092.63
2022-10-17T17:46:42.607Z,102095.09
2022-10-17T17:50:03.547Z,102095.63
2022-10-17T17:53:15.553Z,102092.34
2022-10-17T17:56:40.695Z,102098.06
2022-10-17T18:00:10.684Z,102099.44
2022-10-17T18:03:26.875Z,102101.34
2022-10-17T18:06:49.657Z,102101.66
2022-10-17T18:13:39.617Z,102093.47
2022-10-17T18:17:03.645Z,102103.28
2022-10-17T18:20:27.626Z,102096.72
2022-10-17T18:23:48.842Z,102101.38
2022-10-17T18:26:54.047Z,102094.03
2022-10-17T18:29:56.878Z,102089.97
2022-10-17T18:33:11.235Z,102098.69
2022-10-17T18:36:31.114Z,102092.44
2022-10-17T18:39:40.612Z,102101.44
2022-10-17T18:42:57.782Z,102103.63
2022-10-17T18:46:32.631Z,102100.09
2022-10-17T18:49:55.550Z,102100.38
2022-10-17T18:53:21.220Z,102100.91
2022-10-17T18:56:38.605Z,102105.31
2022-10-17T19:00:03.172Z,102100.13
2022-10-17T19:03:27.651Z,102097.13
2022-10-17T19:06:50.228Z,102093.03
2022-10-17T19:10:10.282Z,102096.56
2022-10-17T19:13:34.551Z,102097.41
2022-10-17T19:16:59.192Z,102089.75
2022-10-17T19:20:21.154Z,102095.47
2022-10-17T19:23:42.246Z,102088.66
2022-10-17T19:26:47.032Z,102095.47
2022-10-17T19:29:55.941Z,102100.94
2022-10-17T19:33:05.828Z,102095.22
2022-10-17T19:36:32.259Z,102091.63
2022-10-17T19:39:45.212Z,102092.19
2022-10-17T19:42:52.169Z,102099.00
2022-10-17T19:46:04.272Z,102092.72
2022-10-17T19:49:07.830Z,102091.38
2022-10-17T19:52:10.560Z,102096.28
2022-10-17T19:55:33.489Z,102090.00
2022-10-17T19:59:04.549Z,102085.03
2022-10-17T20:02:24.530Z,102093.75
2022-10-17T20:05:45.419Z,102101.63
2022-10-17T20:09:13.926Z,102097.53
2022-10-17T20:12:35.379Z,102093.94
2022-10-17T20:15:57.534Z,102096.41
2022-10-17T20:19:17.334Z,102096.13
2022-10-17T20:22:40.411Z,102098.81
2022-10-17T20:26:08.734Z,102093.91
2022-10-17T20:29:28.128Z,102100.66
2022-10-17T20:32:49.690Z,102099.25
2022-10-17T20:35:57.681Z,102092.47
2022-10-17T20:39:07.303Z,102099.53
2022-10-17T20:42:14.508Z,102095.38
2022-10-17T20:45:43.833Z,102095.09
2022-10-17T20:49:31.310Z,102099.97
2022-10-17T20:53:24.450Z,102092.59
2022-10-17T20:56:27.475Z,102101.25
2022-10-17T20:59:46.346Z,102103.94
2022-10-17T21:03:06.387Z,102097.84
2022-10-17T21:06:27.276Z,102103.28
2022-10-17T21:09:47.341Z,102103.00
2022-10-17T21:13:07.317Z,102102.56
2022-10-17T21:16:29.386Z,102102.56
2022-10-17T21:19:49.175Z,102103.38
2022-10-17T21:22:52.462Z,102096.50
2022-10-17T21:26:00.096Z,102110.13
2022-10-17T21:29:11.822Z,102103.81
2022-10-17T21:32:39.404Z,102102.69
2022-10-17T21:36:05.880Z,102106.19
2022-10-17T21:39:15.853Z,102092.78
2022-10-17T21:42:39.198Z,102095.66
2022-10-17T21:46:12.111Z,102095.69
2022-10-17T21:49:30.523Z,102093.81
2022-10-17T21:52:46.103Z,102093.50
2022-10-17T21:56:08.136Z,102095.09
2022-10-17T21:59:17.712Z,102097.66
2022-10-17T22:02:21.075Z,102095.19
2022-10-17T22:05:37.387Z,102090.53
2022-10-17T22:08:43.519Z,102087.94
2022-10-17T22:12:00.091Z,102087.13
2022-10-17T22:15:03.992Z,102080.34
2022-10-17T22:18:18.075Z,102086.34
2022-10-17T22:21:34.948Z,102073.84
2022-10-17T22:24:58.029Z,102081.13
2022-10-17T22:28:21.044Z,102079.72
2022-10-17T22:31:43.936Z,102080.22
2022-10-17T22:35:07.209Z,102085.25
2022-10-17T22:38:26.986Z,102081.34
2022-10-17T22:41:43.224Z,102080.78
2022-10-17T22:45:04.135Z,102079.78
2022-10-17T22:48:37.981Z,102081.09
2022-10-17T22:51:58.961Z,102075.25
2022-10-17T22:55:20.961Z,102081.50
2022-10-17T22:58:44.030Z,102073.91
2022-10-17T23:02:04.015Z,102075.03
2022-10-17T23:05:26.976Z,102066.41
2022-10-17T23:08:49.020Z,102068.53
2022-10-17T23:12:11.964Z,102075.31
2022-10-17T23:15:36.971Z,102068.50
2022-10-17T23:18:58.035Z,102058.41
2022-10-17T23:22:12.125Z,102066.81
2022-10-17T23:25:34.930Z,102056.22
2022-10-17T23:29:00.326Z,102057.19
2022-10-17T23:32:21.046Z,102052.84
2022-10-17T23:35:44.111Z,102051.22
2022-10-17T23:39:01.295Z,102052.47
2022-10-17T23:42:04.282Z,102049.78
2022-10-17T23:45:09.678Z,102042.91
2022-10-17T23:48:30.681Z,102039.94
2022-10-17T23:51:51.721Z,102047.56
2022-10-17T23:55:14.910Z,102046.44
2022-10-17T23:58:40.688Z,102041.59
